Latest Weather Observations for Hogan Island

IDT60801

Issued at 11:05 pm EDT Thursday 30 October 2014 (issued every 30 minutes, with the page automatically refreshed every 10 minutes)

About weather observations | Map of weather stations | Latest weather observations for TAS | Other Formats
Station Details ID: 200838 Name: HOGAN ISLAND Lat: -39.22 Lon: 146.98 Height: 116.0 m
Data from the previous 72 hours. | See also: Recent months at Hogan Island
Date/Time
EDT
Temp
°C
App
Temp
°C
Dew
Point
Rel
Hum
%
Delta-T
°C
Wind Press
QNH
hPa
Press
MSL
hPa
Rain
since 9 am
mm
Dir
 
Spd
km/h
Gust
km/h
Spd
kts
Gust
kts
30/11:00pm 12.2 7.6 9.6 84 1.3 W 24 28 13 15 1013.4 - 0.0
30/10:30pm 12.3 6.1 9.9 85 1.2 W 33 37 18 20 1013.1 - 0.0
30/10:00pm 12.3 7.0 9.9 85 1.2 W 28 32 15 17 1013.4 - 0.0
30/09:30pm 12.4 5.8 10.1 86 1.2 W 35 39 19 21 1013.1 - 0.0
30/09:00pm 12.5 8.0 10.0 85 1.3 W 24 30 13 16 1013.3 1013.3 0.0
30/08:30pm 12.5 6.8 9.7 83 1.4 W 30 35 16 19 1012.8 - 0.0
30/08:00pm 12.6 2.7 9.8 83 1.4 WSW 52 59 28 32 1012.0 - 0.0
30/07:30pm 12.8 0.7 9.4 80 1.7 WSW 63 69 34 37 1011.5 - 0.0
30/07:00pm 13.4 2.5 9.6 78 2.0 WSW 57 63 31 34 1011.7 - 0.0
30/06:30pm 13.9 3.6 9.7 76 2.2 W 54 61 29 33 1011.9 - 0.0
30/06:00pm 14.2 3.3 9.4 73 2.5 W 57 69 31 37 1011.9 1011.9 0.0
30/05:30pm 14.4 4.2 10.0 75 2.3 W 54 59 29 32 1012.0 - 0.0
30/05:00pm 14.3 3.1 9.7 74 2.4 W 59 67 32 36 1011.8 - 0.0
30/04:30pm 15.5 5.8 10.5 72 2.7 W 52 59 28 32 1011.9 - 0.0
30/04:00pm 15.3 6.6 10.1 71 2.7 W 46 57 25 31 1012.1 - 0.0
30/03:30pm 14.3 3.9 9.3 72 2.6 W 54 61 29 33 1012.0 - 0.0
30/03:00pm 15.4 5.7 9.1 66 3.3 W 50 59 27 32 1012.1 1012.1 0.0
30/02:30pm 16.1 7.0 10.0 67 3.2 W 48 54 26 29 1012.3 - 0.0
30/02:00pm 15.3 4.9 9.4 68 3.1 W 54 63 29 34 1012.4 - 0.0
30/01:30pm 13.5 3.6 9.9 79 1.9 W 52 61 28 33 1012.6 - 0.0
30/01:00pm 12.9 2.6 9.7 81 1.6 W 54 61 29 33 1012.5 - 0.0
30/12:30pm 13.2 4.2 10.2 82 1.6 W 48 59 26 32 1012.9 - 0.0
30/12:00pm 14.3 4.7 9.3 72 2.6 W 50 57 27 31 1012.9 1012.9 0.0
30/11:30am 15.2 6.1 10.0 71 2.7 W 48 56 26 30 1013.0 - 0.0
30/11:00am 14.9 5.9 10.1 73 2.5 W 48 59 26 32 1013.2 - 0.0
30/10:30am 14.2 5.4 9.6 74 2.4 W 46 56 25 30 1013.4 - 0.0
30/10:00am 13.4 3.9 9.8 79 1.9 W 50 59 27 32 1013.2 - 0.0
30/09:30am 13.5 4.8 10.1 80 1.8 W 46 56 25 30 1013.2 - 0.0
30/09:00am 12.8 4.7 10.2 84 1.3 W 43 50 23 27 1013.3 1013.3 0.0
30/08:30am 13.3 6.5 10.5 83 1.5 W 37 43 20 23 1013.4 - 0.0
30/08:00am 12.9 4.5 9.5 80 1.7 W 44 52 24 28 1013.3 - 0.0
30/07:30am 13.0 3.9 9.8 81 1.6 W 48 54 26 29 1012.8 - 0.0
30/07:00am 12.8 3.3 9.8 82 1.5 W 50 57 27 31 1012.4 - 0.0
30/06:30am 12.6 4.0 10.3 86 1.2 W 46 57 25 31 1012.4 - 0.0
30/06:00am 12.2 5.0 10.4 89 0.9 W 39 46 21 25 1012.4 1012.4 0.0
30/05:30am 12.2 4.2 10.3 88 1.0 W 43 48 23 26 1012.5 - 0.0
30/05:00am 12.8 5.3 10.9 88 1.0 W 41 46 22 25 1012.5 - 0.0
30/04:30am 12.8 6.4 10.7 87 1.1 WNW 35 41 19 22 1012.5 - 0.0
30/04:00am 12.8 5.3 10.7 87 1.1 W 41 46 22 25 1012.6 - 0.0
30/03:30am 12.8 4.8 10.5 86 1.2 W 43 48 23 26 1012.7 - 0.0
30/03:00am 12.9 5.1 11.0 88 1.0 WNW 43 50 23 27 1012.7 1012.7 0.0
30/02:30am 12.7 4.6 10.8 88 1.0 WNW 44 54 24 29 1012.9 - 0.0
30/02:00am 12.7 4.8 10.8 88 1.0 WNW 43 50 23 27 1013.2 - 0.0
30/01:30am 12.8 4.4 10.9 88 1.0 WNW 46 54 25 29 1013.5 - 0.0
30/01:00am 12.8 4.9 10.9 88 1.0 W 43 50 23 27 1013.7 - 0.0
30/12:30am 12.8 5.3 11.0 89 0.9 W 41 48 22 26 1014.0 - 0.0
30/12:00am 12.7 5.9 10.8 88 1.0 W 37 44 20 24 1014.1 1014.1 0.0
 
Date/Time
EDT
Temp
°C
App
Temp
°C
Dew
Point
Rel
Hum
%
Delta-T
°C
Wind Press
QNH
hPa
Press
MSL
hPa
Rain
since 9 am
mm
Dir
 
Spd
km/h
Gust
km/h
Spd
kts
Gust
kts
29/11:30pm 12.8 7.0 10.7 87 1.1 W 32 41 17 22 1014.4 - 0.0
29/11:00pm 12.6 4.6 10.5 87 1.1 W 43 48 23 26 1014.2 - 0.0
29/10:30pm 12.6 4.4 10.5 87 1.1 W 44 52 24 28 1014.4 - 0.0
29/10:00pm 12.6 5.0 10.5 87 1.1 W 41 50 22 27 1014.6 - 0.0
29/09:30pm 12.5 4.4 10.2 86 1.2 W 43 48 23 26 1014.6 - 0.0
29/09:00pm 12.5 5.1 10.0 85 1.3 W 39 46 21 25 1014.6 1014.6 0.0
29/08:30pm 12.6 4.9 10.1 85 1.3 W 41 48 22 26 1014.6 - 0.0
29/08:00pm 12.7 2.9 10.1 84 1.3 W 52 59 28 32 1014.4 - 0.0
29/07:30pm 12.7 3.6 9.9 83 1.4 W 48 57 26 31 1014.2 - 0.0
29/07:00pm 13.3 4.3 10.3 82 1.6 W 48 56 26 30 1014.2 - 0.0
29/06:30pm 13.1 3.6 9.9 81 1.7 W 50 57 27 31 1014.0 - 0.0
29/06:00pm 13.3 3.4 9.7 79 1.9 W 52 59 28 32 1013.8 1013.8 0.0
29/05:30pm 13.3 3.3 9.4 77 2.0 W 52 63 28 34 1013.8 - 0.0
29/05:00pm 13.9 4.0 9.7 76 2.2 W 52 59 28 32 1013.8 - 0.0
29/04:30pm 13.6 2.3 9.5 76 2.1 W 59 69 32 37 1013.8 - 0.0
29/04:00pm 13.6 2.8 9.3 75 2.2 W 56 67 30 36 1014.0 - 0.0
29/03:30pm 13.6 2.7 9.5 76 2.1 W 57 65 31 35 1014.0 - 0.0
29/03:00pm 14.0 3.3 9.4 74 2.4 W 56 63 30 34 1014.2 1014.2 0.0
29/02:30pm 14.2 3.6 9.8 75 2.3 W 56 65 30 35 1014.5 - 0.0
29/02:00pm 13.2 1.3 8.7 74 2.3 W 61 76 33 41 1014.4 - 0.0
29/01:30pm 13.1 3.0 9.0 76 2.1 W 52 65 28 35 1015.0 - 0.0
29/01:00pm 14.6 4.7 9.6 72 2.6 W 52 59 28 32 1015.1 - 0.0
29/12:30pm 13.1 1.6 8.8 75 2.2 W 59 69 32 37 1015.2 - 0.0
29/12:00pm 14.1 3.0 8.7 70 2.7 W 57 69 31 37 1015.3 1015.3 0.0
29/11:30am 14.2 4.3 8.4 68 2.9 W 50 59 27 32 1015.6 - 0.0
29/11:00am 14.8 6.5 9.2 69 2.9 W 43 50 23 27 1016.0 - 0.0
29/10:30am 13.8 5.3 8.6 71 2.6 W 43 50 23 27 1016.0 - 0.0
29/10:00am 13.5 4.8 8.4 71 2.6 W 44 52 24 28 1016.1 - 0.0
29/09:30am 13.6 5.1 8.7 72 2.5 W 43 48 23 26 1016.2 - 0.0
29/09:00am 12.7 2.6 7.2 69 2.7 W 50 57 27 31 1015.8 1015.8 0.8
29/08:30am 12.9 2.3 6.7 66 3.0 W 52 59 28 32 1015.7 - 0.8
29/08:00am 12.3 1.4 7.2 71 2.5 W 54 61 29 33 1015.5 - 0.8
29/07:30am 11.8 0.6 7.7 76 2.0 W 56 65 30 35 1015.1 - 0.8
29/07:00am 11.7 1.3 7.8 77 1.9 W 52 59 28 32 1015.0 - 0.8
29/06:30am 11.5 1.9 7.8 78 1.8 W 48 57 26 31 1014.9 - 0.8
29/06:00am 11.6 1.5 7.3 75 2.1 W 50 61 27 33 1014.7 1014.7 0.8
29/05:30am 11.2 1.5 7.5 78 1.8 WSW 48 59 26 32 1014.5 - 0.8
29/05:00am 11.2 -0.4 6.5 73 2.2 WSW 57 65 31 35 1013.9 - 0.8
29/04:30am 11.4 0.1 7.3 76 2.0 W 56 63 30 34 1013.6 - 0.8
29/04:00am 11.3 -0.5 7.4 77 1.9 WSW 59 72 32 39 1013.7 - 0.8
29/03:34am 11.0 -2.1 6.7 75 2.0 W 65 83 35 45 1013.2 - 0.8
29/03:30am 11.5 -0.7 7.2 75 2.1 W 61 72 33 39 1013.3 - 0.8
29/03:00am 10.8 -1.2 6.7 76 1.9 W 59 70 32 38 1013.3 1013.3 0.8
29/02:30am 11.3 -1.7 7.0 75 2.1 W 65 72 35 39 1013.0 - 0.8
29/02:00am 11.5 -2.1 6.2 70 2.5 W 67 76 36 41 1012.7 - 0.8
29/01:30am 11.1 -3.5 6.0 71 2.4 W 72 82 39 44 1012.6 - 0.8
29/01:00am 10.1 -5.2 6.1 76 1.9 WSW 76 93 41 50 1012.4 - 0.8
29/12:52am 11.6 -1.5 6.9 73 2.3 W 65 87 35 47 1012.5 - 0.8
29/12:30am 11.4 -3.1 6.3 71 2.4 W 72 83 39 45 1012.4 - 0.8
29/12:00am 11.5 -3.4 6.2 70 2.5 W 74 83 40 45 1012.3 1012.3 0.8
 
Date/Time
EDT
Temp
°C
App
Temp
°C
Dew
Point
Rel
Hum
%
Delta-T
°C
Wind Press
QNH
hPa
Press
MSL
hPa
Rain
since 9 am
mm
Dir
 
Spd
km/h
Gust
km/h
Spd
kts
Gust
kts
28/11:30pm 11.5 -2.6 6.4 71 2.4 WSW 70 85 38 46 1012.1 - 0.8
28/11:00pm 10.9 -4.3 6.5 74 2.1 WSW 76 91 41 49 1011.8 - 0.8
28/10:30pm 11.6 -4.0 6.5 71 2.4 W 78 93 42 50 1011.6 - 0.8
28/10:00pm 11.6 -4.4 6.7 72 2.3 W 80 93 43 50 1011.2 - 0.8
28/09:30pm 10.9 -4.5 7.6 80 1.6 WSW 78 93 42 50 1011.3 - 0.8
28/09:00pm 11.2 -5.3 6.7 74 2.1 W 83 102 45 55 1011.0 1011.0 0.8
28/08:45pm 11.8 -4.3 6.1 68 2.7 W 80 98 43 53 1010.5 - 0.8
28/08:30pm 11.5 -5.3 5.6 67 2.7 W 83 100 45 54 1010.1 - 0.8
28/08:00pm 11.7 -6.5 6.0 68 2.7 W 91 106 49 57 1009.3 - 0.8
28/07:50pm 11.7 -6.4 6.6 71 2.4 W 91 109 49 59 1009.3 - 0.8
28/07:30pm 11.4 -7.7 6.3 71 2.4 W 96 111 52 60 1008.7 - 0.8
28/07:00pm 11.4 -6.2 7.1 75 2.1 W 89 107 48 58 1008.1 - 0.8
28/06:41pm 10.5 -7.6 6.5 76 1.9 W 91 109 49 59 1008.1 - 0.8
28/06:30pm 12.0 -6.1 6.5 69 2.6 W 91 106 49 57 1008.2 - 0.8
28/06:14pm 12.1 -6.4 6.6 69 2.6 W 93 111 50 60 1008.0 - 0.8
28/06:00pm 11.9 -7.1 6.6 70 2.5 W 96 113 52 61 1007.8 1007.8 0.8
28/05:44pm 12.1 -5.5 6.8 70 2.5 W 89 107 48 58 1007.5 - 0.8
28/05:30pm 12.4 -6.2 6.0 65 3.0 W 93 109 50 59 1007.3 - 0.8
28/05:00pm 13.3 -4.5 5.9 61 3.5 W 89 107 48 58 1006.8 - 0.8
28/04:47pm 13.4 -4.5 7.2 66 3.0 W 91 109 49 59 1007.2 - 0.8
28/04:30pm 13.4 -6.1 6.3 62 3.4 W 98 115 53 62 1006.4 - 0.8
28/04:00pm 12.6 -4.6 7.3 70 2.6 W 87 106 47 57 1006.0 - 0.8
28/03:30pm 13.3 -5.9 7.7 69 2.8 W 98 120 53 65 1006.1 - 0.8
28/03:23pm 13.8 -5.2 6.9 63 3.4 W 96 117 52 63 1005.2 - 0.8
28/03:19pm 14.0 -5.3 7.1 63 3.4 W 98 107 53 58 1005.5 - 0.8
28/03:04pm 14.8 -0.6 9.0 68 3.0 W 80 98 43 53 1006.1 - 0.8
28/03:00pm 14.2 -1.9 8.6 69 2.8 W 83 98 45 53 1006.2 1006.2 0.8
28/02:36pm 13.3 -4.6 7.3 67 2.9 W 91 109 49 59 1005.9 - 0.8
28/02:30pm 14.1 -4.8 7.2 63 3.4 W 96 109 52 59 1005.2 - 0.8
28/02:02pm 14.3 -4.0 7.4 63 3.4 W 93 111 50 60 1005.4 - 0.8
28/02:00pm 14.0 -4.8 6.6 61 3.6 W 95 111 51 60 1005.0 - 0.8
28/01:30pm 14.4 -3.1 5.5 55 4.2 W 87 115 47 62 1004.7 - 0.8
28/01:00pm 14.8 -2.2 8.1 64 3.4 W 87 106 47 57 1005.0 - 0.8
28/12:34pm 13.8 -6.1 6.2 60 3.7 W 100 119 54 64 1004.1 - 0.8
28/12:30pm 13.9 -5.9 6.3 60 3.7 W 100 117 54 63 1003.9 - 0.8
28/12:04pm 14.2 -5.0 7.3 63 3.4 W 98 120 53 65 1003.6 - 0.8
28/12:00pm 14.0 -5.6 7.3 64 3.3 W 100 115 54 62 1003.7 1003.7 0.8
28/11:30am 13.6 -6.0 7.4 66 3.1 W 100 126 54 68 1003.0 - 0.8
28/11:02am 12.9 -5.7 8.6 75 2.2 W 96 115 52 62 1003.1 - 0.8
28/11:00am 13.0 -5.5 8.9 76 2.1 W 96 113 52 61 1003.4 - 0.8
28/10:52am 12.6 -7.3 9.4 81 1.6 W 104 122 56 66 1003.2 - 0.8
28/10:46am 12.2 -8.9 9.9 86 1.2 W 111 122 60 66 1002.6 - 0.8
28/10:31am 11.2 -5.7 9.9 92 0.7 W 89 109 48 59 1003.0 - 0.8
28/10:30am 11.3 -5.6 10.0 92 0.7 W 89 106 48 57 1003.0 - 0.8
28/10:00am 10.7 -8.1 9.3 91 0.7 W 98 122 53 66 1002.4 - 0.8
28/09:31am 12.5 -4.2 9.3 81 1.6 WNW 87 107 47 58 1002.2 - 0.0
28/09:30am 12.5 -4.2 9.3 81 1.6 WNW 87 104 47 56 1002.4 - 0.0
28/09:00am 12.5 -3.9 9.0 79 1.8 WNW 85 107 46 58 1002.3 1002.2 9.6
28/08:30am 12.9 -5.5 8.4 74 2.3 WNW 95 113 51 61 1001.5 - 9.6
28/08:00am 13.2 -5.4 8.5 73 2.4 WNW 96 117 52 63 1001.6 - 9.6
28/07:30am 13.0 -5.1 8.1 72 2.4 WNW 93 115 50 62 1000.8 - 9.6
28/07:00am 12.5 -6.6 8.0 74 2.2 WNW 98 119 53 64 1000.7 - 9.6
28/06:31am 12.4 -5.4 7.9 74 2.2 WNW 91 111 49 60 1000.8 - 9.6
28/06:30am 12.3 -5.5 7.8 74 2.2 WNW 91 106 49 57 1001.2 - 9.6
28/06:06am 11.8 -2.8 7.7 76 2.0 WNW 74 104 40 56 1002.0 - 9.6
28/06:00am 11.9 -2.0 7.6 75 2.1 WNW 70 87 38 47 1002.5 1002.4 9.6
28/05:30am 11.5 -1.1 7.2 75 2.1 NW 63 83 34 45 1003.1 - 9.6
28/05:09am 11.6 -0.7 7.1 74 2.2 NW 61 85 33 46 1003.1 - 9.6
28/05:00am 11.4 -2.1 6.7 73 2.2 NW 67 83 36 45 1003.1 - 9.6
28/04:57am 11.4 -2.7 6.7 73 2.2 WNW 70 89 38 48 1003.1 - 9.6
28/04:30am 11.6 -3.2 6.9 73 2.3 WNW 74 87 40 47 1002.7 - 9.6
28/04:00am 11.9 -3.3 6.8 71 2.4 WNW 76 95 41 51 1002.9 - 9.6
28/03:30am 12.2 -4.9 6.0 66 2.9 WNW 85 104 46 56 1002.7 - 9.6
28/03:00am 12.0 -5.3 6.5 69 2.6 WNW 87 106 47 57 1002.9 1002.8 9.6
28/02:31am 11.9 -5.9 6.2 68 2.7 W 89 107 48 58 1003.1 - 9.6
28/02:30am 11.9 -5.9 6.2 68 2.7 W 89 104 48 56 1003.3 - 9.6
28/02:00am 11.8 -5.1 5.2 64 3.1 WNW 83 102 45 55 1003.7 - 9.6
28/01:32am 11.9 -5.0 6.6 70 2.5 WNW 85 106 46 57 1004.3 - 9.6
28/01:30am 11.9 -4.7 6.6 70 2.5 W 83 100 45 54 1004.5 - 9.6
28/01:00am 11.9 -3.9 7.4 74 2.2 W 80 98 43 53 1005.5 - 9.6
28/12:42am 11.4 -4.9 6.9 74 2.2 W 82 100 44 54 1006.0 - 9.6
28/12:30am 11.8 -5.7 5.9 67 2.8 W 87 102 47 55 1005.7 - 9.6
28/12:17am 11.7 -6.5 5.8 67 2.8 W 91 102 49 55 1005.8 - 9.6
28/12:03am 12.1 -2.6 5.7 65 3.0 W 72 91 39 49 1006.4 - 9.6
28/12:00am 12.1 -2.1 5.9 66 2.9 W 70 85 38 46 1006.5 1006.5 9.6
 
Date/Time
EDT
Temp
°C
App
Temp
°C
Dew
Point
Rel
Hum
%
Delta-T
°C
Wind Press
QNH
hPa
Press
MSL
hPa
Rain
since 9 am
mm
Dir
 
Spd
km/h
Gust
km/h
Spd
kts
Gust
kts
27/11:30pm 11.6 -2.4 6.1 69 2.6 W 69 83 37 45 1007.5 - 9.6

Other Formats:

Comma delimited format used in spreadsheet applications
http://www.bom.gov.au/fwo/IDT60801/IDT60801.94949.axf

JavaScript Object Notation format (JSON) in row-major order
http://www.bom.gov.au/fwo/IDT60801/IDT60801.94949.json